sensor_id;sensor_type;location;lat;lon;timestamp;temperature;humidity
4655;DHT22;2340;47.814;9.798;2023-03-12T00:01:45;2.20;99.90
4655;DHT22;2340;47.814;9.798;2023-03-12T00:04:10;2.10;99.90
4655;DHT22;2340;47.814;9.798;2023-03-12T00:06:36;2.10;99.90
4655;DHT22;2340;47.814;9.798;2023-03-12T00:09:01;2.20;99.90
4655;DHT22;2340;47.814;9.798;2023-03-12T00:11:28;2.10;99.90
4655;DHT22;2340;47.814;9.798;2023-03-12T00:13:56;2.20;99.90
4655;DHT22;2340;47.814;9.798;2023-03-12T00:16:23;2.10;99.90
4655;DHT22;2340;47.814;9.798;2023-03-12T00:18:49;2.10;99.90
4655;DHT22;2340;47.814;9.798;2023-03-12T00:21:15;2.20;99.90
4655;DHT22;2340;47.814;9.798;2023-03-12T00:23:41;2.20;99.90
4655;DHT22;2340;47.814;9.798;2023-03-12T00:26:07;2.30;99.90
4655;DHT22;2340;47.814;9.798;2023-03-12T00:28:33;2.30;99.90
4655;DHT22;2340;47.814;9.798;2023-03-12T00:30:59;2.30;99.90
4655;DHT22;2340;47.814;9.798;2023-03-12T00:33:25;2.30;99.90
4655;DHT22;2340;47.814;9.798;2023-03-12T00:35:51;2.30;99.90
4655;DHT22;2340;47.814;9.798;2023-03-12T00:38:16;2.30;99.90
4655;DHT22;2340;47.814;9.798;2023-03-12T00:40:42;2.30;99.90
4655;DHT22;2340;47.814;9.798;2023-03-12T00:43:08;2.20;99.90
4655;DHT22;2340;47.814;9.798;2023-03-12T00:45:33;2.30;99.90
4655;DHT22;2340;47.814;9.798;2023-03-12T00:47:59;2.30;99.90
4655;DHT22;2340;47.814;9.798;2023-03-12T00:50:24;2.30;99.90
4655;DHT22;2340;47.814;9.798;2023-03-12T00:52:50;2.30;99.90
4655;DHT22;2340;47.814;9.798;2023-03-12T00:55:15;2.30;99.90
4655;DHT22;2340;47.814;9.798;2023-03-12T00:57:41;2.30;99.90
4655;DHT22;2340;47.814;9.798;2023-03-12T01:00:07;2.40;99.90
4655;DHT22;2340;47.814;9.798;2023-03-12T01:02:38;2.40;99.90
4655;DHT22;2340;47.814;9.798;2023-03-12T01:05:05;2.40;99.90
4655;DHT22;2340;47.814;9.798;2023-03-12T01:07:31;2.40;99.90
4655;DHT22;2340;47.814;9.798;2023-03-12T01:09:56;2.50;99.90
4655;DHT22;2340;47.814;9.798;2023-03-12T01:12:22;2.50;99.90
4655;DHT22;2340;47.814;9.798;2023-03-12T01:14:47;2.50;99.90
4655;DHT22;2340;47.814;9.798;2023-03-12T01:17:13;2.50;99.90
4655;DHT22;2340;47.814;9.798;2023-03-12T01:19:38;2.50;99.90
4655;DHT22;2340;47.814;9.798;2023-03-12T01:22:04;2.60;99.90
4655;DHT22;2340;47.814;9.798;2023-03-12T01:24:29;2.50;99.90
4655;DHT22;2340;47.814;9.798;2023-03-12T01:26:55;2.50;99.90
4655;DHT22;2340;47.814;9.798;2023-03-12T01:29:21;2.50;99.90
4655;DHT22;2340;47.814;9.798;2023-03-12T01:31:46;2.60;99.90
4655;DHT22;2340;47.814;9.798;2023-03-12T01:34:12;2.50;99.90
4655;DHT22;2340;47.814;9.798;2023-03-12T01:36:37;2.60;99.90
4655;DHT22;2340;47.814;9.798;2023-03-12T01:39:03;2.60;99.90
4655;DHT22;2340;47.814;9.798;2023-03-12T01:41:29;2.60;99.90
4655;DHT22;2340;47.814;9.798;2023-03-12T01:43:56;2.60;99.90
4655;DHT22;2340;47.814;9.798;2023-03-12T01:51:19;2.60;99.90
4655;DHT22;2340;47.814;9.798;2023-03-12T01:53:46;2.60;99.90
4655;DHT22;2340;47.814;9.798;2023-03-12T01:56:12;2.50;99.90
4655;DHT22;2340;47.814;9.798;2023-03-12T01:58:38;2.40;99.90
4655;DHT22;2340;47.814;9.798;2023-03-12T02:01:05;2.30;99.90
4655;DHT22;2340;47.814;9.798;2023-03-12T02:03:30;2.40;99.90
4655;DHT22;2340;47.814;9.798;2023-03-12T02:05:59;2.40;99.90
4655;DHT22;2340;47.814;9.798;2023-03-12T02:08:26;2.30;99.90
4655;DHT22;2340;47.814;9.798;2023-03-12T02:10:52;2.30;99.90
4655;DHT22;2340;47.814;9.798;2023-03-12T02:13:18;2.30;99.90
4655;DHT22;2340;47.814;9.798;2023-03-12T02:15:43;2.40;99.90
4655;DHT22;2340;47.814;9.798;2023-03-12T02:18:10;2.30;99.90
4655;DHT22;2340;47.814;9.798;2023-03-12T02:25:45;2.30;99.90
4655;DHT22;2340;47.814;9.798;2023-03-12T02:28:11;2.30;99.90
4655;DHT22;2340;47.814;9.798;2023-03-12T02:30:38;2.30;99.90
4655;DHT22;2340;47.814;9.798;2023-03-12T02:33:05;2.30;99.90
4655;DHT22;2340;47.814;9.798;2023-03-12T02:35:31;2.10;99.90
4655;DHT22;2340;47.814;9.798;2023-03-12T02:37:56;2.20;99.90
4655;DHT22;2340;47.814;9.798;2023-03-12T02:40:26;2.10;99.90
4655;DHT22;2340;47.814;9.798;2023-03-12T02:42:53;2.20;99.90
4655;DHT22;2340;47.814;9.798;2023-03-12T02:45:19;2.20;99.90
4655;DHT22;2340;47.814;9.798;2023-03-12T02:47:44;2.10;99.90
4655;DHT22;2340;47.814;9.798;2023-03-12T02:50:10;2.10;99.90
4655;DHT22;2340;47.814;9.798;2023-03-12T02:52:36;2.20;99.90
4655;DHT22;2340;47.814;9.798;2023-03-12T02:55:03;2.20;99.90
4655;DHT22;2340;47.814;9.798;2023-03-12T02:57:28;2.20;99.90
4655;DHT22;2340;47.814;9.798;2023-03-12T02:59:54;2.20;99.90
4655;DHT22;2340;47.814;9.798;2023-03-12T03:02:19;2.20;99.90
4655;DHT22;2340;47.814;9.798;2023-03-12T03:04:45;2.20;99.90
4655;DHT22;2340;47.814;9.798;2023-03-12T03:07:11;2.20;99.90
4655;DHT22;2340;47.814;9.798;2023-03-12T03:09:36;2.20;99.90
4655;DHT22;2340;47.814;9.798;2023-03-12T03:12:02;2.20;99.90
4655;DHT22;2340;47.814;9.798;2023-03-12T03:14:27;2.20;99.90
4655;DHT22;2340;47.814;9.798;2023-03-12T03:16:53;2.20;99.90
4655;DHT22;2340;47.814;9.798;2023-03-12T03:19:18;2.10;99.90
4655;DHT22;2340;47.814;9.798;2023-03-12T03:21:44;2.10;99.90
4655;DHT22;2340;47.814;9.798;2023-03-12T03:24:09;2.10;99.90
4655;DHT22;2340;47.814;9.798;2023-03-12T03:26:35;2.10;99.90
4655;DHT22;2340;47.814;9.798;2023-03-12T03:29:00;2.10;99.90
4655;DHT22;2340;47.814;9.798;2023-03-12T03:31:26;2.20;99.90
4655;DHT22;2340;47.814;9.798;2023-03-12T03:33:51;2.10;99.90
4655;DHT22;2340;47.814;9.798;2023-03-12T03:36:17;2.20;99.90
4655;DHT22;2340;47.814;9.798;2023-03-12T03:38:43;2.20;99.90
4655;DHT22;2340;47.814;9.798;2023-03-12T03:41:14;2.20;99.90
4655;DHT22;2340;47.814;9.798;2023-03-12T03:43:39;2.20;99.90
4655;DHT22;2340;47.814;9.798;2023-03-12T03:46:05;2.10;99.90
4655;DHT22;2340;47.814;9.798;2023-03-12T03:48:30;2.00;99.90
4655;DHT22;2340;47.814;9.798;2023-03-12T03:50:59;2.00;99.90
4655;DHT22;2340;47.814;9.798;2023-03-12T03:53:26;2.00;99.90
4655;DHT22;2340;47.814;9.798;2023-03-12T03:55:51;1.90;99.90
4655;DHT22;2340;47.814;9.798;2023-03-12T03:58:17;1.90;99.90
4655;DHT22;2340;47.814;9.798;2023-03-12T04:00:45;1.90;99.90
4655;DHT22;2340;47.814;9.798;2023-03-12T04:03:10;1.90;99.90
4655;DHT22;2340;47.814;9.798;2023-03-12T04:05:36;2.00;99.90
4655;DHT22;2340;47.814;9.798;2023-03-12T04:08:02;1.90;99.90
4655;DHT22;2340;47.814;9.798;2023-03-12T04:10:27;1.90;99.90
4655;DHT22;2340;47.814;9.798;2023-03-12T04:12:53;1.90;99.90
4655;DHT22;2340;47.814;9.798;2023-03-12T04:15:19;1.90;99.90
4655;DHT22;2340;47.814;9.798;2023-03-12T04:17:45;1.90;99.90
4655;DHT22;2340;47.814;9.798;2023-03-12T04:20:10;1.80;99.90
4655;DHT22;2340;47.814;9.798;2023-03-12T04:22:36;1.70;99.90
4655;DHT22;2340;47.814;9.798;2023-03-12T04:25:02;1.80;99.90
4655;DHT22;2340;47.814;9.798;2023-03-12T04:27:27;1.80;99.90
4655;DHT22;2340;47.814;9.798;2023-03-12T04:29:53;1.80;99.90
4655;DHT22;2340;47.814;9.798;2023-03-12T04:32:18;1.90;99.90
4655;DHT22;2340;47.814;9.798;2023-03-12T04:34:44;1.90;99.90
4655;DHT22;2340;47.814;9.798;2023-03-12T04:37:10;1.90;99.90
4655;DHT22;2340;47.814;9.798;2023-03-12T04:39:38;1.90;99.90
4655;DHT22;2340;47.814;9.798;2023-03-12T04:42:04;1.80;99.90
4655;DHT22;2340;47.814;9.798;2023-03-12T04:44:29;1.90;99.90
4655;DHT22;2340;47.814;9.798;2023-03-12T04:46:55;1.90;99.90
4655;DHT22;2340;47.814;9.798;2023-03-12T04:49:20;1.90;99.90
4655;DHT22;2340;47.814;9.798;2023-03-12T04:51:46;1.90;99.90
4655;DHT22;2340;47.814;9.798;2023-03-12T04:54:11;1.90;99.90
4655;DHT22;2340;47.814;9.798;2023-03-12T04:56:37;1.90;99.90
4655;DHT22;2340;47.814;9.798;2023-03-12T04:59:02;1.90;99.90
4655;DHT22;2340;47.814;9.798;2023-03-12T05:01:29;2.00;99.90
4655;DHT22;2340;47.814;9.798;2023-03-12T05:03:55;2.00;99.90
4655;DHT22;2340;47.814;9.798;2023-03-12T05:06:21;2.00;99.90
4655;DHT22;2340;47.814;9.798;2023-03-12T05:08:47;2.00;99.90
4655;DHT22;2340;47.814;9.798;2023-03-12T05:11:13;2.00;99.90
4655;DHT22;2340;47.814;9.798;2023-03-12T05:13:39;2.00;99.90
4655;DHT22;2340;47.814;9.798;2023-03-12T05:16:04;1.90;99.90
4655;DHT22;2340;47.814;9.798;2023-03-12T05:18:30;1.80;99.90
4655;DHT22;2340;47.814;9.798;2023-03-12T05:20:59;1.90;99.90
4655;DHT22;2340;47.814;9.798;2023-03-12T05:23:24;1.90;99.90
4655;DHT22;2340;47.814;9.798;2023-03-12T05:25:50;1.80;99.90
4655;DHT22;2340;47.814;9.798;2023-03-12T05:28:15;1.80;99.90
4655;DHT22;2340;47.814;9.798;2023-03-12T05:30:41;1.80;99.90
4655;DHT22;2340;47.814;9.798;2023-03-12T05:33:06;1.80;99.90
4655;DHT22;2340;47.814;9.798;2023-03-12T05:35:32;1.90;99.90
4655;DHT22;2340;47.814;9.798;2023-03-12T05:37:57;1.90;99.90
4655;DHT22;2340;47.814;9.798;2023-03-12T05:40:23;1.90;99.90
4655;DHT22;2340;47.814;9.798;2023-03-12T05:42:48;1.80;99.90
4655;DHT22;2340;47.814;9.798;2023-03-12T05:45:14;1.90;99.90
4655;DHT22;2340;47.814;9.798;2023-03-12T05:47:39;1.90;99.90
4655;DHT22;2340;47.814;9.798;2023-03-12T05:50:05;1.90;99.90
4655;DHT22;2340;47.814;9.798;2023-03-12T05:52:30;1.90;99.90
4655;DHT22;2340;47.814;9.798;2023-03-12T05:54:56;2.00;99.90
4655;DHT22;2340;47.814;9.798;2023-03-12T05:57:21;1.90;99.90
4655;DHT22;2340;47.814;9.798;2023-03-12T05:59:47;1.90;99.90
4655;DHT22;2340;47.814;9.798;2023-03-12T06:02:12;2.00;99.90
4655;DHT22;2340;47.814;9.798;2023-03-12T06:04:38;2.00;99.90
4655;DHT22;2340;47.814;9.798;2023-03-12T06:07:03;2.00;99.90
4655;DHT22;2340;47.814;9.798;2023-03-12T06:09:29;2.00;99.90
4655;DHT22;2340;47.814;9.798;2023-03-12T06:11:54;2.00;99.90
4655;DHT22;2340;47.814;9.798;2023-03-12T06:14:20;2.00;99.90
4655;DHT22;2340;47.814;9.798;2023-03-12T06:16:45;2.00;99.90
4655;DHT22;2340;47.814;9.798;2023-03-12T06:19:11;2.00;99.90
4655;DHT22;2340;47.814;9.798;2023-03-12T06:21:38;2.10;99.90
4655;DHT22;2340;47.814;9.798;2023-03-12T06:24:04;2.10;99.90
4655;DHT22;2340;47.814;9.798;2023-03-12T06:26:30;2.10;99.90
4655;DHT22;2340;47.814;9.798;2023-03-12T06:28:55;2.10;99.90
4655;DHT22;2340;47.814;9.798;2023-03-12T06:31:21;2.20;99.90
4655;DHT22;2340;47.814;9.798;2023-03-12T06:33:47;2.20;99.90
4655;DHT22;2340;47.814;9.798;2023-03-12T06:36:12;2.20;99.90
4655;DHT22;2340;47.814;9.798;2023-03-12T06:38:38;2.20;99.90
4655;DHT22;2340;47.814;9.798;2023-03-12T06:41:08;2.20;99.90
4655;DHT22;2340;47.814;9.798;2023-03-12T06:43:35;2.30;99.90
4655;DHT22;2340;47.814;9.798;2023-03-12T06:46:01;2.30;99.90
4655;DHT22;2340;47.814;9.798;2023-03-12T06:48:28;2.40;99.90
4655;DHT22;2340;47.814;9.798;2023-03-12T06:50:54;2.40;99.90
4655;DHT22;2340;47.814;9.798;2023-03-12T06:53:19;2.40;99.90
4655;DHT22;2340;47.814;9.798;2023-03-12T06:55:49;2.40;99.90
4655;DHT22;2340;47.814;9.798;2023-03-12T06:58:15;2.40;99.90
4655;DHT22;2340;47.814;9.798;2023-03-12T07:00:40;2.40;99.90
4655;DHT22;2340;47.814;9.798;2023-03-12T07:03:06;2.40;99.90
4655;DHT22;2340;47.814;9.798;2023-03-12T07:05:31;2.40;99.90
4655;DHT22;2340;47.814;9.798;2023-03-12T07:07:57;2.50;99.90
4655;DHT22;2340;47.814;9.798;2023-03-12T07:10:23;2.40;99.90
4655;DHT22;2340;47.814;9.798;2023-03-12T07:12:48;2.50;99.90
4655;DHT22;2340;47.814;9.798;2023-03-12T07:15:15;2.50;99.90
4655;DHT22;2340;47.814;9.798;2023-03-12T07:17:40;2.50;99.90
4655;DHT22;2340;47.814;9.798;2023-03-12T07:20:06;2.70;99.90
4655;DHT22;2340;47.814;9.798;2023-03-12T07:22:32;2.70;99.90
4655;DHT22;2340;47.814;9.798;2023-03-12T07:24:57;2.80;99.90
4655;DHT22;2340;47.814;9.798;2023-03-12T07:27:23;2.90;99.90
4655;DHT22;2340;47.814;9.798;2023-03-12T07:29:48;2.90;99.90
4655;DHT22;2340;47.814;9.798;2023-03-12T07:32:14;3.00;99.90
4655;DHT22;2340;47.814;9.798;2023-03-12T07:34:39;3.00;99.90
4655;DHT22;2340;47.814;9.798;2023-03-12T07:37:05;3.10;99.90
4655;DHT22;2340;47.814;9.798;2023-03-12T07:39:30;3.10;99.90
4655;DHT22;2340;47.814;9.798;2023-03-12T07:41:56;3.10;99.90
4655;DHT22;2340;47.814;9.798;2023-03-12T07:44:21;3.80;99.90
4655;DHT22;2340;47.814;9.798;2023-03-12T07:46:47;4.40;99.90
4655;DHT22;2340;47.814;9.798;2023-03-12T07:49:12;4.40;99.90
4655;DHT22;2340;47.814;9.798;2023-03-12T07:51:38;4.50;99.90
4655;DHT22;2340;47.814;9.798;2023-03-12T07:54:03;4.50;99.90
4655;DHT22;2340;47.814;9.798;2023-03-12T07:56:29;4.30;99.90
4655;DHT22;2340;47.814;9.798;2023-03-12T07:58:54;4.20;99.90
4655;DHT22;2340;47.814;9.798;2023-03-12T08:01:20;4.10;99.90
4655;DHT22;2340;47.814;9.798;2023-03-12T08:03:45;4.10;99.90
4655;DHT22;2340;47.814;9.798;2023-03-12T08:06:11;4.10;99.90
4655;DHT22;2340;47.814;9.798;2023-03-12T08:08:36;4.10;99.90
4655;DHT22;2340;47.814;9.798;2023-03-12T08:11:05;4.10;99.90
4655;DHT22;2340;47.814;9.798;2023-03-12T08:13:31;4.10;99.90
4655;DHT22;2340;47.814;9.798;2023-03-12T08:15:57;4.10;99.90
4655;DHT22;2340;47.814;9.798;2023-03-12T08:18:22;4.20;99.90
4655;DHT22;2340;47.814;9.798;2023-03-12T08:20:52;4.20;99.90
4655;DHT22;2340;47.814;9.798;2023-03-12T08:23:17;4.30;99.90
4655;DHT22;2340;47.814;9.798;2023-03-12T08:25:44;4.30;99.90
4655;DHT22;2340;47.814;9.798;2023-03-12T08:28:11;4.40;99.90
4655;DHT22;2340;47.814;9.798;2023-03-12T08:30:36;4.40;99.90
4655;DHT22;2340;47.814;9.798;2023-03-12T08:33:02;4.40;99.90
4655;DHT22;2340;47.814;9.798;2023-03-12T08:35:27;4.40;99.90
4655;DHT22;2340;47.814;9.798;2023-03-12T08:37:53;4.50;99.90
4655;DHT22;2340;47.814;9.798;2023-03-12T08:40:18;4.40;99.90
4655;DHT22;2340;47.814;9.798;2023-03-12T08:42:44;4.50;99.90
4655;DHT22;2340;47.814;9.798;2023-03-12T08:45:10;4.60;99.90
4655;DHT22;2340;47.814;9.798;2023-03-12T08:47:36;4.60;99.90
4655;DHT22;2340;47.814;9.798;2023-03-12T08:50:06;4.60;99.90
4655;DHT22;2340;47.814;9.798;2023-03-12T08:52:31;4.60;99.90
4655;DHT22;2340;47.814;9.798;2023-03-12T08:54:57;4.70;99.90
4655;DHT22;2340;47.814;9.798;2023-03-12T08:57:22;4.40;99.90
4655;DHT22;2340;47.814;9.798;2023-03-12T08:59:48;4.80;99.90
4655;DHT22;2340;47.814;9.798;2023-03-12T09:02:14;4.90;99.90
4655;DHT22;2340;47.814;9.798;2023-03-12T09:04:39;5.00;99.90
4655;DHT22;2340;47.814;9.798;2023-03-12T09:07:05;5.00;99.90
4655;DHT22;2340;47.814;9.798;2023-03-12T09:09:30;5.00;99.90
4655;DHT22;2340;47.814;9.798;2023-03-12T09:11:56;5.00;99.90
4655;DHT22;2340;47.814;9.798;2023-03-12T09:14:21;5.00;99.90
4655;DHT22;2340;47.814;9.798;2023-03-12T09:16:47;5.00;99.90
4655;DHT22;2340;47.814;9.798;2023-03-12T09:19:13;5.20;99.90
4655;DHT22;2340;47.814;9.798;2023-03-12T09:21:38;5.20;99.90
4655;DHT22;2340;47.814;9.798;2023-03-12T09:24:04;5.30;99.90
4655;DHT22;2340;47.814;9.798;2023-03-12T09:26:30;5.40;99.90
4655;DHT22;2340;47.814;9.798;2023-03-12T09:28:56;5.50;99.90
4655;DHT22;2340;47.814;9.798;2023-03-12T09:31:22;5.60;99.90
4655;DHT22;2340;47.814;9.798;2023-03-12T09:33:48;5.70;99.90
4655;DHT22;2340;47.814;9.798;2023-03-12T09:36:13;5.70;99.90
4655;DHT22;2340;47.814;9.798;2023-03-12T09:38:39;5.80;99.90
4655;DHT22;2340;47.814;9.798;2023-03-12T09:41:04;5.90;99.90
4655;DHT22;2340;47.814;9.798;2023-03-12T09:43:32;5.90;99.90
4655;DHT22;2340;47.814;9.798;2023-03-12T09:45:58;6.00;99.90
4655;DHT22;2340;47.814;9.798;2023-03-12T09:48:27;6.10;99.90
4655;DHT22;2340;47.814;9.798;2023-03-12T09:50:54;6.20;99.90
4655;DHT22;2340;47.814;9.798;2023-03-12T09:55:49;6.40;99.90
4655;DHT22;2340;47.814;9.798;2023-03-12T09:58:36;6.40;99.90
4655;DHT22;2340;47.814;9.798;2023-03-12T10:06:19;6.40;99.90
4655;DHT22;2340;47.814;9.798;2023-03-12T10:09:34;6.40;99.90
4655;DHT22;2340;47.814;9.798;2023-03-12T10:21:58;6.30;99.90
4655;DHT22;2340;47.814;9.798;2023-03-12T10:27:00;6.30;99.90
4655;DHT22;2340;47.814;9.798;2023-03-12T10:34:23;6.40;99.90
4655;DHT22;2340;47.814;9.798;2023-03-12T10:36:49;6.40;99.90
4655;DHT22;2340;47.814;9.798;2023-03-12T10:39:18;6.50;99.90
4655;DHT22;2340;47.814;9.798;2023-03-12T10:41:45;6.70;99.90
4655;DHT22;2340;47.814;9.798;2023-03-12T10:44:20;6.80;99.90
4655;DHT22;2340;47.814;9.798;2023-03-12T10:54:41;7.10;99.90
4655;DHT22;2340;47.814;9.798;2023-03-12T10:57:09;7.10;99.90
4655;DHT22;2340;47.814;9.798;2023-03-12T10:59:36;7.20;99.90
4655;DHT22;2340;47.814;9.798;2023-03-12T11:02:02;7.20;99.90
4655;DHT22;2340;47.814;9.798;2023-03-12T11:04:49;7.20;99.90
4655;DHT22;2340;47.814;9.798;2023-03-12T11:07:17;7.30;99.90
4655;DHT22;2340;47.814;9.798;2023-03-12T11:09:43;7.40;99.90
4655;DHT22;2340;47.814;9.798;2023-03-12T11:12:25;7.50;99.90
4655;DHT22;2340;47.814;9.798;2023-03-12T11:14:51;7.50;99.90
4655;DHT22;2340;47.814;9.798;2023-03-12T11:17:27;7.60;99.90
4655;DHT22;2340;47.814;9.798;2023-03-12T11:19:53;7.70;99.90
4655;DHT22;2340;47.814;9.798;2023-03-12T11:22:29;7.70;99.90
4655;DHT22;2340;47.814;9.798;2023-03-12T11:24:55;7.80;99.90
4655;DHT22;2340;47.814;9.798;2023-03-12T11:29:59;7.80;99.90
4655;DHT22;2340;47.814;9.798;2023-03-12T11:34:56;7.70;99.90
4655;DHT22;2340;47.814;9.798;2023-03-12T11:47:31;7.70;99.90
4655;DHT22;2340;47.814;9.798;2023-03-12T12:05:22;7.90;99.90
4655;DHT22;2340;47.814;9.798;2023-03-12T12:08:02;8.00;99.90
4655;DHT22;2340;47.814;9.798;2023-03-12T12:11:15;8.00;99.90
4655;DHT22;2340;47.814;9.798;2023-03-12T12:16:08;8.10;99.90
4655;DHT22;2340;47.814;9.798;2023-03-12T12:26:56;8.10;99.90
4655;DHT22;2340;47.814;9.798;2023-03-12T12:29:24;8.10;99.90
4655;DHT22;2340;47.814;9.798;2023-03-12T12:31:56;8.20;99.90
4655;DHT22;2340;47.814;9.798;2023-03-12T12:36:48;8.40;99.90
4655;DHT22;2340;47.814;9.798;2023-03-12T12:39:17;8.60;99.90
4655;DHT22;2340;47.814;9.798;2023-03-12T12:41:47;8.50;99.90
4655;DHT22;2340;47.814;9.798;2023-03-12T12:44:19;8.60;99.90
4655;DHT22;2340;47.814;9.798;2023-03-12T12:46:47;8.70;99.90
4655;DHT22;2340;47.814;9.798;2023-03-12T12:49:16;8.80;99.90
4655;DHT22;2340;47.814;9.798;2023-03-12T12:51:46;8.70;99.90
4655;DHT22;2340;47.814;9.798;2023-03-12T12:54:19;8.50;99.90
4655;DHT22;2340;47.814;9.798;2023-03-12T12:56:49;8.40;99.90
4655;DHT22;2340;47.814;9.798;2023-03-12T12:59:27;8.40;99.90
4655;DHT22;2340;47.814;9.798;2023-03-12T13:01:56;8.50;99.90
4655;DHT22;2340;47.814;9.798;2023-03-12T13:06:54;8.50;99.90
4655;DHT22;2340;47.814;9.798;2023-03-12T13:09:21;8.40;99.90
4655;DHT22;2340;47.814;9.798;2023-03-12T13:11:46;8.20;99.90
4655;DHT22;2340;47.814;9.798;2023-03-12T13:14:17;8.10;99.90
4655;DHT22;2340;47.814;9.798;2023-03-12T13:16:44;8.10;99.90
4655;DHT22;2340;47.814;9.798;2023-03-12T13:21:46;7.90;99.90
4655;DHT22;2340;47.814;9.798;2023-03-12T13:27:21;7.90;99.90
4655;DHT22;2340;47.814;9.798;2023-03-12T13:29:48;8.00;99.90
4655;DHT22;2340;47.814;9.798;2023-03-12T13:32:36;8.20;99.90
4655;DHT22;2340;47.814;9.798;2023-03-12T13:35:06;8.50;99.90
4655;DHT22;2340;47.814;9.798;2023-03-12T13:43:54;8.30;99.90
4655;DHT22;2340;47.814;9.798;2023-03-12T13:45:58;8.20;99.90
4655;DHT22;2340;47.814;9.798;2023-03-12T13:48:24;8.00;99.90
4655;DHT22;2340;47.814;9.798;2023-03-12T13:50:54;7.80;99.90
4655;DHT22;2340;47.814;9.798;2023-03-12T13:53:31;7.80;99.90
4655;DHT22;2340;47.814;9.798;2023-03-12T13:56:05;7.80;99.90
4655;DHT22;2340;47.814;9.798;2023-03-12T13:58:31;7.70;99.90
4655;DHT22;2340;47.814;9.798;2023-03-12T14:01:05;7.90;99.90
4655;DHT22;2340;47.814;9.798;2023-03-12T14:03:36;7.90;99.90
4655;DHT22;2340;47.814;9.798;2023-03-12T14:06:11;8.10;99.90
4655;DHT22;2340;47.814;9.798;2023-03-12T14:16:47;7.80;99.90
4655;DHT22;2340;47.814;9.798;2023-03-12T14:19:17;7.70;99.90
4655;DHT22;2340;47.814;9.798;2023-03-12T14:21:44;7.90;99.90
4655;DHT22;2340;47.814;9.798;2023-03-12T14:24:22;8.10;99.90
4655;DHT22;2340;47.814;9.798;2023-03-12T14:26:48;8.20;99.90
4655;DHT22;2340;47.814;9.798;2023-03-12T14:29:22;8.10;99.90
4655;DHT22;2340;47.814;9.798;2023-03-12T14:31:50;8.00;99.90
4655;DHT22;2340;47.814;9.798;2023-03-12T14:34:20;8.00;99.90
4655;DHT22;2340;47.814;9.798;2023-03-12T14:41:59;8.30;99.90
4655;DHT22;2340;47.814;9.798;2023-03-12T14:44:26;8.40;99.90
4655;DHT22;2340;47.814;9.798;2023-03-12T14:49:23;8.40;99.90
4655;DHT22;2340;47.814;9.798;2023-03-12T14:51:49;8.50;99.90
4655;DHT22;2340;47.814;9.798;2023-03-12T14:54:18;8.80;99.90
4655;DHT22;2340;47.814;9.798;2023-03-12T14:56:44;8.80;99.90
4655;DHT22;2340;47.814;9.798;2023-03-12T14:59:29;8.90;99.90
4655;DHT22;2340;47.814;9.798;2023-03-12T15:01:58;9.10;99.90
4655;DHT22;2340;47.814;9.798;2023-03-12T15:04:24;9.10;99.90
4655;DHT22;2340;47.814;9.798;2023-03-12T15:06:51;9.20;99.90
4655;DHT22;2340;47.814;9.798;2023-03-12T15:09:18;9.40;99.90
4655;DHT22;2340;47.814;9.798;2023-03-12T15:11:49;9.90;99.90
4655;DHT22;2340;47.814;9.798;2023-03-12T15:14:14;10.40;99.90
4655;DHT22;2340;47.814;9.798;2023-03-12T15:16:41;10.90;99.90
4655;DHT22;2340;47.814;9.798;2023-03-12T15:19:10;11.40;99.90
4655;DHT22;2340;47.814;9.798;2023-03-12T15:21:36;11.80;99.90
4655;DHT22;2340;47.814;9.798;2023-03-12T15:24:02;11.80;99.90
4655;DHT22;2340;47.814;9.798;2023-03-12T15:26:29;11.80;99.90
4655;DHT22;2340;47.814;9.798;2023-03-12T15:31:21;11.40;99.90
4655;DHT22;2340;47.814;9.798;2023-03-12T15:33:58;11.20;99.90
4655;DHT22;2340;47.814;9.798;2023-03-12T15:36:24;11.20;99.90
4655;DHT22;2340;47.814;9.798;2023-03-12T15:38:52;11.10;99.90
4655;DHT22;2340;47.814;9.798;2023-03-12T15:41:21;11.00;99.90
4655;DHT22;2340;47.814;9.798;2023-03-12T15:43:50;10.90;99.90
4655;DHT22;2340;47.814;9.798;2023-03-12T15:46:16;10.70;99.90
4655;DHT22;2340;47.814;9.798;2023-03-12T15:48:44;10.50;99.90
4655;DHT22;2340;47.814;9.798;2023-03-12T15:51:12;10.30;99.90
4655;DHT22;2340;47.814;9.798;2023-03-12T15:53:37;10.20;99.90
4655;DHT22;2340;47.814;9.798;2023-03-12T15:56:04;10.00;99.90
4655;DHT22;2340;47.814;9.798;2023-03-12T15:58:31;9.80;99.90
4655;DHT22;2340;47.814;9.798;2023-03-12T16:01:08;9.60;99.90
4655;DHT22;2340;47.814;9.798;2023-03-12T16:03:34;9.50;99.90
4655;DHT22;2340;47.814;9.798;2023-03-12T16:05:59;9.50;99.90
4655;DHT22;2340;47.814;9.798;2023-03-12T16:08:26;9.50;99.90
4655;DHT22;2340;47.814;9.798;2023-03-12T16:10:54;9.40;99.90
4655;DHT22;2340;47.814;9.798;2023-03-12T16:13:20;9.30;99.90
4655;DHT22;2340;47.814;9.798;2023-03-12T16:15:47;9.20;99.90
4655;DHT22;2340;47.814;9.798;2023-03-12T16:18:17;9.20;99.90
4655;DHT22;2340;47.814;9.798;2023-03-12T16:20:43;9.20;99.90
4655;DHT22;2340;47.814;9.798;2023-03-12T16:23:08;9.20;99.90
4655;DHT22;2340;47.814;9.798;2023-03-12T16:25:34;9.10;99.90
4655;DHT22;2340;47.814;9.798;2023-03-12T16:28:00;9.10;99.90
4655;DHT22;2340;47.814;9.798;2023-03-12T16:30:34;9.10;99.90
4655;DHT22;2340;47.814;9.798;2023-03-12T16:33:00;9.10;99.90
4655;DHT22;2340;47.814;9.798;2023-03-12T16:35:26;8.90;99.90
4655;DHT22;2340;47.814;9.798;2023-03-12T16:37:52;8.80;99.90
4655;DHT22;2340;47.814;9.798;2023-03-12T16:40:18;8.70;99.90
4655;DHT22;2340;47.814;9.798;2023-03-12T16:42:45;8.50;99.90
4655;DHT22;2340;47.814;9.798;2023-03-12T16:45:12;8.40;99.90
4655;DHT22;2340;47.814;9.798;2023-03-12T16:47:38;8.30;99.90
4655;DHT22;2340;47.814;9.798;2023-03-12T16:52:38;8.30;99.90
4655;DHT22;2340;47.814;9.798;2023-03-12T16:55:04;8.20;99.90
4655;DHT22;2340;47.814;9.798;2023-03-12T16:57:34;8.20;99.90
4655;DHT22;2340;47.814;9.798;2023-03-12T17:00:00;8.10;99.90
4655;DHT22;2340;47.814;9.798;2023-03-12T17:02:26;8.00;99.90
4655;DHT22;2340;47.814;9.798;2023-03-12T17:04:54;8.00;99.90
4655;DHT22;2340;47.814;9.798;2023-03-12T17:07:19;7.90;99.90
4655;DHT22;2340;47.814;9.798;2023-03-12T17:09:45;7.80;99.90
4655;DHT22;2340;47.814;9.798;2023-03-12T17:12:43;7.80;99.90
4655;DHT22;2340;47.814;9.798;2023-03-12T17:15:13;7.70;99.90
4655;DHT22;2340;47.814;9.798;2023-03-12T17:17:39;7.70;99.90
4655;DHT22;2340;47.814;9.798;2023-03-12T17:20:05;7.60;99.90
4655;DHT22;2340;47.814;9.798;2023-03-12T17:22:34;7.60;99.90
4655;DHT22;2340;47.814;9.798;2023-03-12T17:25:00;7.60;99.90
4655;DHT22;2340;47.814;9.798;2023-03-12T17:27:25;7.50;99.90
4655;DHT22;2340;47.814;9.798;2023-03-12T17:29:51;7.50;99.90
4655;DHT22;2340;47.814;9.798;2023-03-12T17:32:16;7.50;99.90
4655;DHT22;2340;47.814;9.798;2023-03-12T17:34:42;7.40;99.90
4655;DHT22;2340;47.814;9.798;2023-03-12T17:37:07;7.40;99.90
4655;DHT22;2340;47.814;9.798;2023-03-12T17:39:33;7.40;99.90
4655;DHT22;2340;47.814;9.798;2023-03-12T17:41:59;7.40;99.90
4655;DHT22;2340;47.814;9.798;2023-03-12T17:44:24;7.40;99.90
4655;DHT22;2340;47.814;9.798;2023-03-12T17:46:53;7.40;99.90
4655;DHT22;2340;47.814;9.798;2023-03-12T17:49:19;7.30;99.90
4655;DHT22;2340;47.814;9.798;2023-03-12T17:51:44;7.30;99.90
4655;DHT22;2340;47.814;9.798;2023-03-12T17:54:10;7.30;99.90
4655;DHT22;2340;47.814;9.798;2023-03-12T17:56:36;7.20;99.90
4655;DHT22;2340;47.814;9.798;2023-03-12T17:59:02;7.20;99.90
4655;DHT22;2340;47.814;9.798;2023-03-12T18:01:27;7.20;99.90
4655;DHT22;2340;47.814;9.798;2023-03-12T18:03:53;7.10;99.90
4655;DHT22;2340;47.814;9.798;2023-03-12T18:06:18;7.10;99.90
4655;DHT22;2340;47.814;9.798;2023-03-12T18:08:43;7.10;99.90
4655;DHT22;2340;47.814;9.798;2023-03-12T18:11:09;7.00;99.90
4655;DHT22;2340;47.814;9.798;2023-03-12T18:13:34;7.10;99.90
4655;DHT22;2340;47.814;9.798;2023-03-12T18:16:00;7.10;99.90
4655;DHT22;2340;47.814;9.798;2023-03-12T18:18:26;7.10;99.90